Time;durP1;ratioP1;P1;durP2;ratioP2;P2;SDS_P1;SDS_P2;PMS_P1;PMS_P2;Temp;Humidity;BMP_temperature;BMP_pressure;BME280_temperature;BME280_humidity;BME280_pressure;Samples;Min_cycle;Max_cycle;Signal;HPM_P1;HPM_P2
2022/10/25 04:21:23;;;;;;;39.80;19.30;;;;;;;13.40;100.00;100429.56;5563796;31;201129;-88
2022/10/25 04:24:27;;;;;;;38.53;19.58;;;;;;;13.40;100.00;100429.56;5555848;32;34275;-88
2022/10/25 04:27:29;;;;;;;35.80;18.62;;;;;;;12.94;100.00;100433.19;5551571;32;34693;-87
2022/10/25 04:30:32;;;;;;;30.80;17.12;;;;;;;12.94;100.00;100431.34;5573594;26;32800;-88
2022/10/25 04:33:40;;;;;;;30.48;16.52;;;;;;;12.98;100.00;100436.50;5575911;32;33133;-88
2022/10/25 04:36:49;;;;;;;29.98;16.45;;;;;;;13.00;100.00;100439.94;5571162;32;34323;-88
2022/10/25 04:39:51;;;;;;;27.33;16.33;;;;;;;13.01;100.00;100444.31;5563744;32;34759;-88
2022/10/25 04:42:55;;;;;;;27.60;15.57;;;;;;;13.06;100.00;100434.25;5563423;32;34161;-87
2022/10/25 04:46:00;;;;;;;28.25;15.90;;;;;;;13.10;100.00;100440.25;5561394;32;33894;-88
2022/10/25 04:49:03;;;;;;;27.40;15.27;;;;;;;13.08;100.00;100440.34;5561140;32;34009;-90
2022/10/25 04:52:05;;;;;;;29.37;15.93;;;;;;;13.01;100.00;100439.84;5551381;32;32416;-88
2022/10/25 04:55:08;;;;;;;25.15;15.55;;;;;;;12.98;100.00;100445.34;5544206;32;33797;-88
2022/10/25 04:58:10;;;;;;;25.27;15.45;;;;;;;12.96;100.00;100444.59;5543686;32;35011;-88
2022/10/25 05:01:15;;;;;;;27.33;15.75;;;;;;;13.01;100.00;100444.31;5543438;32;34537;-87
2022/10/25 05:04:18;;;;;;;27.23;16.20;;;;;;;13.08;100.00;100440.34;5547619;32;34637;-88
2022/10/25 05:07:21;;;;;;;25.80;16.10;;;;;;;13.04;100.00;100437.00;5550290;32;33555;-88
2022/10/25 05:10:23;;;;;;;26.17;15.55;;;;;;;13.06;100.00;100447.56;5563396;32;33681;-88
2022/10/25 05:13:26;;;;;;;24.92;14.52;;;;;;;13.08;100.00;100451.84;5554601;32;33071;-88
2022/10/25 05:16:33;;;;;;;24.98;15.25;;;;;;;12.98;100.00;100447.16;5563184;32;34433;-87
2022/10/25 05:19:35;;;;;;;26.20;15.43;;;;;;;12.94;100.00;100441.16;5561899;32;32546;-87
2022/10/25 05:22:38;;;;;;;23.80;15.07;;;;;;;12.94;100.00;100439.34;5563666;32;34184;-88
2022/10/25 05:25:41;;;;;;;23.10;14.25;;;;;;;12.99;100.00;100435.56;5564575;32;32511;-89
2022/10/25 05:28:44;;;;;;;23.73;14.87;;;;;;;12.93;100.00;100442.12;5570951;32;32778;-88
2022/10/25 05:31:47;;;;;;;23.85;14.18;;;;;;;12.96;100.00;100443.75;5542012;32;33862;-87
2022/10/25 05:34:50;;;;;;;23.40;13.93;;;;;;;12.93;100.00;100453.59;5552837;32;34009;-87
2022/10/25 05:37:53;;;;;;;23.75;15.02;;;;;;;12.97;100.00;100456.94;5556275;32;33947;-89
2022/10/25 05:40:57;;;;;;;22.92;14.50;;;;;;;12.98;100.00;100471.13;5560850;32;33957;-88
2022/10/25 05:44:00;;;;;;;21.27;13.32;;;;;;;12.96;100.00;100476.53;5549973;32;33459;-88
2022/10/25 05:47:03;;;;;;;23.33;13.32;;;;;;;13.00;100.00;100501.19;5550573;32;32451;-88
2022/10/25 05:50:06;;;;;;;21.02;13.00;;;;;;;13.07;100.00;100506.06;5550037;32;34152;-88
2022/10/25 05:53:09;;;;;;;21.33;12.68;;;;;;;13.11;100.00;100519.19;5550399;32;33942;-88
2022/10/25 05:56:13;;;;;;;20.70;11.88;;;;;;;13.03;100.00;100535.63;5547924;32;35234;-89
2022/10/25 05:59:15;;;;;;;19.40;11.75;;;;;;;13.17;100.00;100541.00;5566928;32;33258;-88
2022/10/25 06:02:20;;;;;;;24.52;15.00;;;;;;;13.26;100.00;100544.94;5559004;32;33216;-88
2022/10/25 06:05:23;;;;;;;25.15;15.25;;;;;;;13.22;100.00;100543.41;5553836;32;33472;-91
2022/10/25 06:08:25;;;;;;;28.00;17.80;;;;;;;13.19;100.00;100551.59;5527276;32;33451;-92
2022/10/25 06:11:29;;;;;;;30.83;18.67;;;;;;;13.14;100.00;100538.53;5536280;32;34327;-89
2022/10/25 06:14:31;;;;;;;29.63;19.10;;;;;;;13.24;100.00;100541.53;5567197;32;33476;-88
2022/10/25 06:17:34;;;;;;;34.25;21.23;;;;;;;13.35;100.00;100543.53;5560949;32;34040;-87
2022/10/25 06:20:37;;;;;;;33.13;22.87;;;;;;;13.21;100.00;100563.88;5563589;32;33397;-88
2022/10/25 06:23:41;;;;;;;36.15;22.77;;;;;;;13.27;100.00;100575.97;5569249;32;34306;-88
2022/10/25 06:26:43;;;;;;;37.80;23.40;;;;;;;13.34;100.00;100585.31;5575577;32;34222;-88
2022/10/25 06:29:46;;;;;;;35.22;23.05;;;;;;;13.32;100.00;100592.53;5570213;32;34108;-88
2022/10/25 06:32:48;;;;;;;36.08;22.17;;;;;;;13.28;100.00;100601.66;5551150;32;32379;-88
2022/10/25 06:35:58;;;;;;;33.15;22.13;;;;;;;13.30;100.00;100599.78;5549078;32;34082;-87
2022/10/25 06:39:01;;;;;;;32.80;21.37;;;;;;;13.52;100.00;100595.88;5551588;32;32626;-88
2022/10/25 06:42:08;;;;;;;32.22;21.95;;;;;;;13.41;100.00;100598.28;5536410;32;33550;-87
2022/10/25 06:45:10;;;;;;;34.00;21.65;;;;;;;13.32;100.00;100605.84;5550465;32;33903;-88
2022/10/25 06:48:13;;;;;;;32.95;21.02;;;;;;;13.38;100.00;100599.31;5549138;32;34538;-87
2022/10/25 06:51:16;;;;;;;32.88;21.87;;;;;;;13.46;100.00;100602.44;5534462;32;34625;-87
2022/10/25 06:54:19;;;;;;;30.10;21.00;;;;;;;13.54;100.00;100601.12;5545299;32;34329;-88
2022/10/25 06:57:21;;;;;;;30.90;21.52;;;;;;;13.50;100.00;100596.91;5551444;32;33999;-87
2022/10/25 07:00:24;;;;;;;30.40;20.17;;;;;;;13.40;100.00;100597.44;5547316;32;34642;-88
2022/10/25 07:03:33;;;;;;;30.95;20.60;;;;;;;13.43;100.00;100591.91;5547837;32;34868;-87
2022/10/25 07:06:36;;;;;;;28.38;19.52;;;;;;;13.54;100.00;100588.66;5543110;32;33749;-89
2022/10/25 07:09:39;;;;;;;31.10;17.67;;;;;;;13.46;100.00;100586.44;5545282;32;34757;-89
2022/10/25 07:12:42;;;;;;;26.15;17.37;;;;;;;13.63;100.00;100584.56;5519906;32;33463;-89
2022/10/25 07:15:45;;;;;;;28.35;16.70;;;;;;;13.55;100.00;100578.84;5546070;32;34275;-88
2022/10/25 07:18:48;;;;;;;23.17;16.30;;;;;;;13.60;100.00;100592.75;5552035;32;33863;-88
2022/10/25 07:21:50;;;;;;;27.58;15.98;;;;;;;13.62;100.00;100585.53;5547598;32;34030;-88
2022/10/25 07:24:53;;;;;;;23.38;14.40;;;;;;;13.61;100.00;100590.00;5530277;32;33883;-88
2022/10/25 07:27:56;;;;;;;20.05;13.65;;;;;;;13.69;100.00;100602.87;5532750;32;33860;-90
2022/10/25 07:30:59;;;;;;;18.77;13.02;;;;;;;13.75;100.00;100596.31;5531586;32;34314;-89
2022/10/25 07:34:04;;;;;;;19.27;12.50;;;;;;;13.72;100.00;100594.69;5525662;32;33620;-89
2022/10/25 07:48:15;;;;;;;19.15;12.32;;;;;;;13.80;100.00;100607.59;1940305;26;20087;-88
2022/10/25 07:51:18;;;;;;;16.30;11.07;;;;;;;13.80;100.00;100615.56;5579278;26;34125;-89
2022/10/25 07:54:21;;;;;;;12.05;7.80;;;;;;;13.95;100.00;100620.94;5567408;32;34500;-89
2022/10/25 07:57:24;;;;;;;10.73;5.90;;;;;;;14.23;100.00;100613.94;5567497;32;34638;-88
2022/10/25 08:00:26;;;;;;;8.70;5.47;;;;;;;14.31;100.00;100619.66;5564137;32;34345;-89
2022/10/25 08:03:30;;;;;;;9.05;6.72;;;;;;;14.46;100.00;100624.97;5565953;32;35062;-88
2022/10/25 08:06:34;;;;;;;11.57;7.35;;;;;;;14.51;100.00;100631.75;5543433;32;32411;-89
2022/10/25 08:09:37;;;;;;;11.77;8.30;;;;;;;14.52;100.00;100633.47;5553827;32;34382;-89
2022/10/25 08:12:40;;;;;;;13.32;9.05;;;;;;;14.41;100.00;100628.81;5550313;32;32453;-89
2022/10/25 08:15:54;;;;;;;14.30;10.02;;;;;;;14.53;100.00;100629.84;5582581;26;34233;-88
2022/10/25 08:18:57;;;;;;;16.42;10.75;;;;;;;14.34;100.00;100634.63;5599791;26;33938;-87
2022/10/25 08:22:01;;;;;;;14.87;11.10;;;;;;;14.28;100.00;100635.84;5606986;26;34639;-88
2022/10/25 08:25:04;;;;;;;17.20;11.57;;;;;;;14.47;100.00;100632.91;5561811;32;34532;-90
2022/10/25 09:12:40;;;;;;;17.33;11.43;;;;;;;14.76;100.00;100659.62;4043030;29;20115;-87
2022/10/25 09:16:08;;;;;;;18.40;11.63;;;;;;;14.94;100.00;100659.41;5570153;32;34561;-87
2022/10/25 09:26:40;;;;;;;22.83;11.00;;;;;;;15.06;100.00;100665.78;5562668;32;34343;-86
2022/10/25 09:29:53;;;;;;;15.45;11.12;;;;;;;15.02;100.00;100649.09;5549667;32;32682;-87
2022/10/25 09:33:00;;;;;;;18.70;11.82;;;;;;;15.07;100.00;100663.00;5564748;32;34167;-87
2022/10/25 09:36:03;;;;;;;16.70;10.00;;;;;;;14.99;100.00;100659.12;5550614;32;32934;-87
2022/10/25 10:02:26;;;;;;;15.30;11.20;;;;;;;15.65;100.00;100670.00;4963981;29;20428;-87
2022/10/25 10:05:30;;;;;;;17.05;10.85;;;;;;;15.79;100.00;100677.06;5558914;32;34185;-86
2022/10/25 10:08:34;;;;;;;18.50;11.73;;;;;;;15.69;100.00;100678.66;5560639;32;34989;-87
2022/10/25 10:11:38;;;;;;;20.58;11.75;;;;;;;15.91;100.00;100672.72;5568454;32;34140;-87
2022/10/25 10:14:59;;;;;;;14.87;10.80;;;;;;;16.02;100.00;100686.28;5578281;32;34202;-87
2022/10/25 10:18:20;;;;;;;18.15;11.10;;;;;;;15.68;100.00;100695.69;5557708;32;32691;-88
2022/10/25 10:21:26;;;;;;;16.30;10.07;;;;;;;15.55;100.00;100688.47;5570723;32;34946;-87
2022/10/25 10:24:49;;;;;;;18.23;10.90;;;;;;;15.61;100.00;100689.88;5558294;32;34163;-87
2022/10/25 10:27:56;;;;;;;14.10;9.48;;;;;;;15.58;100.00;100692.72;5566916;32;34286;-89
2022/10/25 10:57:33;;;;;;;16.48;10.68;;;;;;;15.57;100.00;100691.88;5215268;29;20104;-87
2022/10/25 11:00:37;;;;;;;16.30;9.20;;;;;;;15.81;100.00;100680.53;5572897;32;34250;-87
2022/10/25 11:03:40;;;;;;;12.43;8.73;;;;;;;16.43;100.00;100686.19;5564997;32;34101;-87
2022/10/25 11:14:31;;;;;;;11.65;8.45;;;;;;;16.75;100.00;100691.09;5544487;32;20092;-88
2022/10/25 11:17:42;;;;;;;12.13;7.62;;;;;;;17.05;100.00;100686.38;5540819;32;34233;-89
2022/10/25 11:20:52;;;;;;;9.32;6.93;;;;;;;17.36;100.00;100684.97;5546150;32;33970;-87
2022/10/25 11:24:01;;;;;;;11.50;6.32;;;;;;;17.30;100.00;100687.28;5527539;32;33740;-88
2022/10/25 11:27:49;;;;;;;8.57;6.32;;;;;;;18.01;98.33;100678.44;5524975;32;32650;-85
2022/10/25 11:31:00;;;;;;;10.82;6.20;;;;;;;18.19;95.35;100681.56;5524916;32;33542;-88
2022/10/25 11:34:22;;;;;;;10.48;6.57;;;;;;;18.34;94.65;100684.06;5547878;32;33989;-87
2022/10/25 11:37:41;;;;;;;8.52;6.35;;;;;;;17.70;96.97;100678.09;5549240;32;32301;-89
2022/10/25 11:40:56;;;;;;;9.35;6.40;;;;;;;18.24;94.84;100681.19;5534938;32;34938;-88
2022/10/25 11:43:59;;;;;;;10.00;6.62;;;;;;;18.22;93.06;100681.34;5534060;32;34262;-86
2022/10/25 11:47:38;;;;;;;9.10;6.10;;;;;;;18.49;91.82;100682.84;5532891;32;33104;-87
2022/10/25 11:50:53;;;;;;;8.43;5.35;;;;;;;18.12;91.79;100674.97;5500618;32;35143;-87
2022/10/25 11:54:15;;;;;;;9.33;5.67;;;;;;;18.12;94.20;100686.56;5490668;32;34944;-86
2022/10/25 11:57:30;;;;;;;9.25;5.22;;;;;;;18.19;90.82;100686.94;5476096;32;32950;-87
2022/10/25 12:01:25;;;;;;;8.45;4.85;;;;;;;18.36;90.54;100682.09;5491594;32;34657;-88
2022/10/25 12:04:52;;;;;;;6.57;5.37;;;;;;;18.19;91.48;100676.19;5450105;32;33859;-88
2022/10/25 12:08:06;;;;;;;9.25;5.53;;;;;;;17.86;94.25;100667.06;5493533;32;33905;-85
2022/10/25 12:11:16;;;;;;;7.32;4.43;;;;;;;17.36;98.37;100665.38;5483517;32;34365;-86
2022/10/25 12:14:31;;;;;;;8.75;4.05;;;;;;;17.33;95.86;100673.63;5479181;32;33746;-87
2022/10/25 12:17:34;;;;;;;7.37;3.72;;;;;;;16.94;95.57;100671.03;5493174;32;34304;-86
2022/10/25 12:20:40;;;;;;;3.58;3.15;;;;;;;17.32;94.79;100669.25;5493237;32;34230;-88
2022/10/25 12:23:47;;;;;;;8.18;3.10;;;;;;;17.42;90.89;100683.69;5505476;32;34100;-87
2022/10/25 12:26:53;;;;;;;4.62;3.33;;;;;;;17.54;90.39;100681.06;5538636;32;34970;-86
2022/10/25 12:30:04;;;;;;;3.80;3.35;;;;;;;17.65;88.67;100678.41;5533773;32;33843;-87
2022/10/25 12:33:19;;;;;;;5.12;3.05;;;;;;;17.70;88.02;100675.41;5537487;32;33351;-90
2022/10/25 12:36:35;;;;;;;3.90;3.33;;;;;;;18.03;87.62;100676.50;5530417;32;33858;-87
2022/10/25 12:39:42;;;;;;;5.93;3.60;;;;;;;18.19;86.66;100681.56;5537930;32;32765;-87
2022/10/25 12:42:49;;;;;;;6.60;3.37;;;;;;;18.16;86.94;100685.34;5546713;32;33979;-88
2022/10/25 12:46:10;;;;;;;5.68;3.75;;;;;;;18.18;87.22;100683.41;5543590;32;35047;-89
2022/10/25 12:56:54;;;;;;;5.12;3.50;;;;;;;17.94;87.55;100680.72;2461077;29;20439;-88
2022/10/25 13:00:11;;;;;;;4.82;3.28;;;;;;;17.58;86.40;100682.53;5559481;32;35262;-88
2022/10/25 13:03:26;;;;;;;5.60;3.00;;;;;;;17.88;86.53;100673.16;5573558;32;33656;-88
